sensor_id;sensor_type;location;lat;lon;timestamp;P1;durP1;ratioP1;P2;durP2;ratioP2
77828;SDS011;67019;51.034;3.728;2023-04-25T00:02:07;23.25;;;5.95;;
77828;SDS011;67019;51.034;3.728;2023-04-25T00:04:35;22.80;;;6.83;;
77828;SDS011;67019;51.034;3.728;2023-04-25T00:07:05;24.50;;;5.67;;
77828;SDS011;67019;51.034;3.728;2023-04-25T00:09:32;29.67;;;7.92;;
77828;SDS011;67019;51.034;3.728;2023-04-25T00:12:00;15.48;;;5.35;;
77828;SDS011;67019;51.034;3.728;2023-04-25T00:14:28;26.70;;;5.70;;
77828;SDS011;67019;51.034;3.728;2023-04-25T00:16:57;22.25;;;6.17;;
77828;SDS011;67019;51.034;3.728;2023-04-25T00:19:25;16.15;;;5.12;;
77828;SDS011;67019;51.034;3.728;2023-04-25T00:21:56;17.17;;;5.33;;
77828;SDS011;67019;51.034;3.728;2023-04-25T00:24:26;19.32;;;5.33;;
77828;SDS011;67019;51.034;3.728;2023-04-25T00:26:53;16.10;;;6.12;;
77828;SDS011;67019;51.034;3.728;2023-04-25T00:29:21;32.67;;;5.58;;
77828;SDS011;67019;51.034;3.728;2023-04-25T00:31:48;20.92;;;5.15;;
77828;SDS011;67019;51.034;3.728;2023-04-25T00:34:16;31.87;;;5.22;;
77828;SDS011;67019;51.034;3.728;2023-04-25T00:36:44;27.25;;;6.10;;
77828;SDS011;67019;51.034;3.728;2023-04-25T00:39:11;17.90;;;4.67;;
77828;SDS011;67019;51.034;3.728;2023-04-25T00:41:39;16.02;;;4.33;;
77828;SDS011;67019;51.034;3.728;2023-04-25T00:44:08;25.57;;;4.58;;
77828;SDS011;67019;51.034;3.728;2023-04-25T00:46:39;17.95;;;5.05;;
77828;SDS011;67019;51.034;3.728;2023-04-25T00:49:07;21.57;;;5.55;;
77828;SDS011;67019;51.034;3.728;2023-04-25T00:51:36;25.35;;;4.80;;
77828;SDS011;67019;51.034;3.728;2023-04-25T00:54:04;25.85;;;4.95;;
77828;SDS011;67019;51.034;3.728;2023-04-25T00:56:31;13.60;;;3.85;;
77828;SDS011;67019;51.034;3.728;2023-04-25T00:58:59;14.58;;;4.60;;
77828;SDS011;67019;51.034;3.728;2023-04-25T01:01:27;23.00;;;4.85;;
77828;SDS011;67019;51.034;3.728;2023-04-25T01:03:55;22.55;;;5.17;;
77828;SDS011;67019;51.034;3.728;2023-04-25T01:06:24;14.78;;;4.50;;
77828;SDS011;67019;51.034;3.728;2023-04-25T01:08:53;15.28;;;5.00;;
77828;SDS011;67019;51.034;3.728;2023-04-25T01:11:21;26.90;;;6.83;;
77828;SDS011;67019;51.034;3.728;2023-04-25T01:13:48;25.37;;;5.05;;
77828;SDS011;67019;51.034;3.728;2023-04-25T01:16:16;22.90;;;6.15;;
77828;SDS011;67019;51.034;3.728;2023-04-25T01:18:45;17.80;;;5.25;;
77828;SDS011;67019;51.034;3.728;2023-04-25T01:21:15;18.80;;;6.53;;
77828;SDS011;67019;51.034;3.728;2023-04-25T01:23:42;29.45;;;5.45;;
77828;SDS011;67019;51.034;3.728;2023-04-25T01:26:11;10.38;;;4.05;;
77828;SDS011;67019;51.034;3.728;2023-04-25T01:28:39;17.12;;;4.08;;
77828;SDS011;67019;51.034;3.728;2023-04-25T01:31:07;19.75;;;4.58;;
77828;SDS011;67019;51.034;3.728;2023-04-25T01:33:35;28.57;;;4.80;;
77828;SDS011;67019;51.034;3.728;2023-04-25T01:36:04;17.73;;;4.22;;
77828;SDS011;67019;51.034;3.728;2023-04-25T01:38:32;13.95;;;3.77;;
77828;SDS011;67019;51.034;3.728;2023-04-25T01:41:00;22.00;;;6.40;;
77828;SDS011;67019;51.034;3.728;2023-04-25T01:43:28;30.27;;;6.72;;
77828;SDS011;67019;51.034;3.728;2023-04-25T01:45:56;22.98;;;4.12;;
77828;SDS011;67019;51.034;3.728;2023-04-25T01:48:24;17.00;;;5.72;;
77828;SDS011;67019;51.034;3.728;2023-04-25T01:50:51;21.20;;;5.45;;
77828;SDS011;67019;51.034;3.728;2023-04-25T01:53:20;21.87;;;5.42;;
77828;SDS011;67019;51.034;3.728;2023-04-25T01:55:48;19.10;;;6.08;;
77828;SDS011;67019;51.034;3.728;2023-04-25T01:58:17;23.10;;;5.35;;
77828;SDS011;67019;51.034;3.728;2023-04-25T02:00:45;16.60;;;5.45;;
77828;SDS011;67019;51.034;3.728;2023-04-25T02:03:13;27.95;;;5.30;;
77828;SDS011;67019;51.034;3.728;2023-04-25T02:05:41;21.33;;;5.22;;
77828;SDS011;67019;51.034;3.728;2023-04-25T02:08:08;28.65;;;5.15;;
77828;SDS011;67019;51.034;3.728;2023-04-25T02:10:36;27.87;;;5.40;;
77828;SDS011;67019;51.034;3.728;2023-04-25T02:13:03;18.57;;;5.67;;
77828;SDS011;67019;51.034;3.728;2023-04-25T02:15:31;20.60;;;6.03;;
77828;SDS011;67019;51.034;3.728;2023-04-25T02:17:59;26.93;;;5.60;;
77828;SDS011;67019;51.034;3.728;2023-04-25T02:20:28;28.12;;;5.10;;
77828;SDS011;67019;51.034;3.728;2023-04-25T02:22:57;21.55;;;5.62;;
77828;SDS011;67019;51.034;3.728;2023-04-25T02:25:25;28.20;;;5.30;;
77828;SDS011;67019;51.034;3.728;2023-04-25T02:27:52;24.70;;;5.17;;
77828;SDS011;67019;51.034;3.728;2023-04-25T02:30:20;19.77;;;5.80;;
77828;SDS011;67019;51.034;3.728;2023-04-25T02:32:47;23.15;;;6.70;;
77828;SDS011;67019;51.034;3.728;2023-04-25T02:35:15;24.75;;;5.17;;
77828;SDS011;67019;51.034;3.728;2023-04-25T02:37:43;24.27;;;6.75;;
77828;SDS011;67019;51.034;3.728;2023-04-25T02:40:10;21.12;;;6.97;;
77828;SDS011;67019;51.034;3.728;2023-04-25T02:42:38;23.73;;;5.00;;
77828;SDS011;67019;51.034;3.728;2023-04-25T02:45:06;24.72;;;4.50;;
77828;SDS011;67019;51.034;3.728;2023-04-25T02:47:34;26.80;;;6.30;;
77828;SDS011;67019;51.034;3.728;2023-04-25T02:50:01;17.15;;;4.12;;
77828;SDS011;67019;51.034;3.728;2023-04-25T02:52:29;21.73;;;6.58;;
77828;SDS011;67019;51.034;3.728;2023-04-25T02:54:56;19.02;;;4.67;;
77828;SDS011;67019;51.034;3.728;2023-04-25T02:57:24;18.60;;;4.92;;
77828;SDS011;67019;51.034;3.728;2023-04-25T02:59:52;20.68;;;4.75;;
77828;SDS011;67019;51.034;3.728;2023-04-25T03:02:19;15.38;;;4.78;;
77828;SDS011;67019;51.034;3.728;2023-04-25T03:04:48;20.77;;;3.92;;
77828;SDS011;67019;51.034;3.728;2023-04-25T03:07:16;12.25;;;4.40;;
77828;SDS011;67019;51.034;3.728;2023-04-25T03:09:43;19.00;;;4.17;;
77828;SDS011;67019;51.034;3.728;2023-04-25T03:12:11;15.38;;;6.30;;
77828;SDS011;67019;51.034;3.728;2023-04-25T03:14:38;23.18;;;4.78;;
77828;SDS011;67019;51.034;3.728;2023-04-25T03:17:06;10.55;;;3.70;;
77828;SDS011;67019;51.034;3.728;2023-04-25T03:19:33;18.73;;;4.78;;
77828;SDS011;67019;51.034;3.728;2023-04-25T03:22:01;11.68;;;4.92;;
77828;SDS011;67019;51.034;3.728;2023-04-25T03:24:29;9.78;;;3.30;;
77828;SDS011;67019;51.034;3.728;2023-04-25T03:26:57;19.50;;;4.95;;
77828;SDS011;67019;51.034;3.728;2023-04-25T03:29:26;12.65;;;4.17;;
77828;SDS011;67019;51.034;3.728;2023-04-25T03:31:54;10.00;;;3.90;;
77828;SDS011;67019;51.034;3.728;2023-04-25T03:34:22;14.85;;;3.98;;
77828;SDS011;67019;51.034;3.728;2023-04-25T03:36:49;17.75;;;4.95;;
77828;SDS011;67019;51.034;3.728;2023-04-25T03:39:17;17.80;;;4.58;;
77828;SDS011;67019;51.034;3.728;2023-04-25T03:41:45;16.45;;;4.45;;
77828;SDS011;67019;51.034;3.728;2023-04-25T03:44:12;21.40;;;5.03;;
77828;SDS011;67019;51.034;3.728;2023-04-25T03:46:40;12.43;;;3.85;;
77828;SDS011;67019;51.034;3.728;2023-04-25T03:49:08;9.63;;;3.85;;
77828;SDS011;67019;51.034;3.728;2023-04-25T03:51:35;13.93;;;3.95;;
77828;SDS011;67019;51.034;3.728;2023-04-25T03:54:03;7.53;;;3.80;;
77828;SDS011;67019;51.034;3.728;2023-04-25T03:56:31;11.28;;;3.00;;
77828;SDS011;67019;51.034;3.728;2023-04-25T03:58:58;14.60;;;3.90;;
77828;SDS011;67019;51.034;3.728;2023-04-25T04:01:26;14.45;;;3.67;;
77828;SDS011;67019;51.034;3.728;2023-04-25T04:03:53;11.93;;;3.92;;
77828;SDS011;67019;51.034;3.728;2023-04-25T04:06:21;12.80;;;3.47;;
77828;SDS011;67019;51.034;3.728;2023-04-25T04:08:49;7.62;;;3.02;;
77828;SDS011;67019;51.034;3.728;2023-04-25T04:11:16;21.55;;;4.42;;
77828;SDS011;67019;51.034;3.728;2023-04-25T04:13:44;14.63;;;3.58;;
77828;SDS011;67019;51.034;3.728;2023-04-25T04:16:11;12.93;;;3.72;;
77828;SDS011;67019;51.034;3.728;2023-04-25T04:18:39;15.63;;;4.30;;
77828;SDS011;67019;51.034;3.728;2023-04-25T04:21:07;15.83;;;5.92;;
77828;SDS011;67019;51.034;3.728;2023-04-25T04:23:34;17.15;;;4.90;;
77828;SDS011;67019;51.034;3.728;2023-04-25T04:26:03;20.02;;;4.65;;
77828;SDS011;67019;51.034;3.728;2023-04-25T04:28:32;15.30;;;4.50;;
77828;SDS011;67019;51.034;3.728;2023-04-25T04:31:01;12.70;;;4.83;;
77828;SDS011;67019;51.034;3.728;2023-04-25T04:33:29;18.82;;;5.75;;
77828;SDS011;67019;51.034;3.728;2023-04-25T04:35:58;23.10;;;6.05;;
77828;SDS011;67019;51.034;3.728;2023-04-25T04:38:26;26.87;;;4.65;;
77828;SDS011;67019;51.034;3.728;2023-04-25T04:40:54;17.40;;;5.55;;
77828;SDS011;67019;51.034;3.728;2023-04-25T04:43:22;12.93;;;5.40;;
77828;SDS011;67019;51.034;3.728;2023-04-25T04:45:49;15.32;;;4.60;;
77828;SDS011;67019;51.034;3.728;2023-04-25T04:48:18;18.82;;;4.72;;
77828;SDS011;67019;51.034;3.728;2023-04-25T04:50:47;15.55;;;4.10;;
77828;SDS011;67019;51.034;3.728;2023-04-25T04:53:14;16.12;;;4.97;;
77828;SDS011;67019;51.034;3.728;2023-04-25T04:55:42;15.35;;;5.17;;
77828;SDS011;67019;51.034;3.728;2023-04-25T04:58:11;16.37;;;4.07;;
77828;SDS011;67019;51.034;3.728;2023-04-25T05:00:39;13.93;;;3.55;;
77828;SDS011;67019;51.034;3.728;2023-04-25T05:03:07;16.35;;;4.50;;
77828;SDS011;67019;51.034;3.728;2023-04-25T05:05:35;10.88;;;3.85;;
77828;SDS011;67019;51.034;3.728;2023-04-25T05:08:05;11.35;;;4.17;;
77828;SDS011;67019;51.034;3.728;2023-04-25T05:10:32;11.80;;;3.85;;
77828;SDS011;67019;51.034;3.728;2023-04-25T05:13:00;10.55;;;3.52;;
77828;SDS011;67019;51.034;3.728;2023-04-25T05:15:28;10.15;;;3.20;;
77828;SDS011;67019;51.034;3.728;2023-04-25T05:17:56;15.03;;;3.83;;
77828;SDS011;67019;51.034;3.728;2023-04-25T05:20:23;15.68;;;4.10;;
77828;SDS011;67019;51.034;3.728;2023-04-25T05:22:51;8.43;;;3.35;;
77828;SDS011;67019;51.034;3.728;2023-04-25T05:25:18;14.53;;;4.67;;
77828;SDS011;67019;51.034;3.728;2023-04-25T05:27:46;15.23;;;3.72;;
77828;SDS011;67019;51.034;3.728;2023-04-25T05:30:14;13.98;;;3.85;;
77828;SDS011;67019;51.034;3.728;2023-04-25T05:32:41;14.75;;;3.65;;
77828;SDS011;67019;51.034;3.728;2023-04-25T05:35:09;10.23;;;4.20;;
77828;SDS011;67019;51.034;3.728;2023-04-25T05:37:36;20.92;;;4.00;;
77828;SDS011;67019;51.034;3.728;2023-04-25T05:40:04;13.93;;;4.17;;
77828;SDS011;67019;51.034;3.728;2023-04-25T05:42:33;12.58;;;3.72;;
77828;SDS011;67019;51.034;3.728;2023-04-25T05:45:00;17.07;;;3.83;;
77828;SDS011;67019;51.034;3.728;2023-04-25T05:47:28;14.23;;;3.85;;
77828;SDS011;67019;51.034;3.728;2023-04-25T05:49:56;18.45;;;3.47;;
77828;SDS011;67019;51.034;3.728;2023-04-25T05:52:23;18.57;;;3.77;;
77828;SDS011;67019;51.034;3.728;2023-04-25T05:54:51;12.88;;;3.67;;
77828;SDS011;67019;51.034;3.728;2023-04-25T05:57:24;12.33;;;3.60;;
77828;SDS011;67019;51.034;3.728;2023-04-25T05:59:49;19.10;;;4.12;;
77828;SDS011;67019;51.034;3.728;2023-04-25T06:02:18;25.57;;;4.83;;
77828;SDS011;67019;51.034;3.728;2023-04-25T06:04:48;17.27;;;2.95;;
77828;SDS011;67019;51.034;3.728;2023-04-25T06:07:18;13.20;;;3.52;;
77828;SDS011;67019;51.034;3.728;2023-04-25T06:09:46;13.32;;;3.70;;
77828;SDS011;67019;51.034;3.728;2023-04-25T06:12:16;26.62;;;4.90;;
77828;SDS011;67019;51.034;3.728;2023-04-25T06:14:43;15.45;;;4.37;;
77828;SDS011;67019;51.034;3.728;2023-04-25T06:17:10;11.53;;;2.92;;
77828;SDS011;67019;51.034;3.728;2023-04-25T06:19:38;14.40;;;3.52;;
77828;SDS011;67019;51.034;3.728;2023-04-25T06:22:07;18.57;;;3.17;;
77828;SDS011;67019;51.034;3.728;2023-04-25T06:24:34;12.47;;;3.30;;
77828;SDS011;67019;51.034;3.728;2023-04-25T06:27:02;16.73;;;3.20;;
77828;SDS011;67019;51.034;3.728;2023-04-25T06:29:30;12.58;;;3.60;;
77828;SDS011;67019;51.034;3.728;2023-04-25T06:31:57;8.48;;;2.72;;
77828;SDS011;67019;51.034;3.728;2023-04-25T06:34:26;11.53;;;3.10;;
77828;SDS011;67019;51.034;3.728;2023-04-25T06:36:54;10.78;;;2.25;;
77828;SDS011;67019;51.034;3.728;2023-04-25T06:39:21;7.17;;;2.50;;
77828;SDS011;67019;51.034;3.728;2023-04-25T06:41:51;7.22;;;2.10;;
77828;SDS011;67019;51.034;3.728;2023-04-25T06:44:19;8.28;;;2.52;;
77828;SDS011;67019;51.034;3.728;2023-04-25T06:46:48;9.15;;;2.35;;
77828;SDS011;67019;51.034;3.728;2023-04-25T06:49:16;8.45;;;2.40;;
77828;SDS011;67019;51.034;3.728;2023-04-25T06:51:43;4.83;;;2.00;;
77828;SDS011;67019;51.034;3.728;2023-04-25T06:54:11;11.90;;;2.22;;
77828;SDS011;67019;51.034;3.728;2023-04-25T06:56:38;12.18;;;2.22;;
77828;SDS011;67019;51.034;3.728;2023-04-25T06:59:06;6.83;;;2.15;;
77828;SDS011;67019;51.034;3.728;2023-04-25T07:01:34;13.50;;;2.27;;
77828;SDS011;67019;51.034;3.728;2023-04-25T07:04:02;17.67;;;2.70;;
77828;SDS011;67019;51.034;3.728;2023-04-25T07:06:30;14.23;;;2.08;;
77828;SDS011;67019;51.034;3.728;2023-04-25T07:08:58;7.53;;;3.98;;
77828;SDS011;67019;51.034;3.728;2023-04-25T07:11:25;11.53;;;2.12;;
77828;SDS011;67019;51.034;3.728;2023-04-25T07:13:55;13.35;;;2.17;;
77828;SDS011;67019;51.034;3.728;2023-04-25T07:16:22;22.45;;;2.52;;
77828;SDS011;67019;51.034;3.728;2023-04-25T07:18:50;11.80;;;2.30;;
77828;SDS011;67019;51.034;3.728;2023-04-25T07:21:17;11.83;;;3.87;;
77828;SDS011;67019;51.034;3.728;2023-04-25T07:23:45;10.50;;;2.58;;
77828;SDS011;67019;51.034;3.728;2023-04-25T07:26:13;10.13;;;2.27;;
77828;SDS011;67019;51.034;3.728;2023-04-25T07:28:40;6.45;;;1.90;;
77828;SDS011;67019;51.034;3.728;2023-04-25T07:31:09;16.37;;;3.35;;
77828;SDS011;67019;51.034;3.728;2023-04-25T07:33:36;15.78;;;2.50;;
77828;SDS011;67019;51.034;3.728;2023-04-25T07:36:04;13.80;;;3.50;;
77828;SDS011;67019;51.034;3.728;2023-04-25T07:38:32;8.65;;;2.10;;
77828;SDS011;67019;51.034;3.728;2023-04-25T07:40:59;10.18;;;1.87;;
77828;SDS011;67019;51.034;3.728;2023-04-25T07:43:27;5.95;;;1.65;;
77828;SDS011;67019;51.034;3.728;2023-04-25T07:45:55;8.23;;;2.08;;
77828;SDS011;67019;51.034;3.728;2023-04-25T07:48:23;4.33;;;1.55;;
77828;SDS011;67019;51.034;3.728;2023-04-25T07:50:51;4.97;;;1.70;;
77828;SDS011;67019;51.034;3.728;2023-04-25T07:53:20;9.00;;;1.72;;
77828;SDS011;67019;51.034;3.728;2023-04-25T07:55:48;8.05;;;1.57;;
77828;SDS011;67019;51.034;3.728;2023-04-25T07:58:16;10.58;;;1.70;;
77828;SDS011;67019;51.034;3.728;2023-04-25T08:00:45;7.17;;;1.95;;
77828;SDS011;67019;51.034;3.728;2023-04-25T08:03:13;7.65;;;1.67;;
77828;SDS011;67019;51.034;3.728;2023-04-25T08:05:41;9.20;;;2.15;;
77828;SDS011;67019;51.034;3.728;2023-04-25T08:08:08;10.98;;;2.25;;
77828;SDS011;67019;51.034;3.728;2023-04-25T08:10:36;11.18;;;1.87;;
77828;SDS011;67019;51.034;3.728;2023-04-25T08:13:04;6.53;;;1.35;;
77828;SDS011;67019;51.034;3.728;2023-04-25T08:15:31;4.05;;;1.20;;
77828;SDS011;67019;51.034;3.728;2023-04-25T08:17:59;6.55;;;1.85;;
77828;SDS011;67019;51.034;3.728;2023-04-25T08:20:27;5.65;;;1.70;;
77828;SDS011;67019;51.034;3.728;2023-04-25T08:22:54;13.43;;;1.82;;
77828;SDS011;67019;51.034;3.728;2023-04-25T08:25:22;13.25;;;2.83;;
77828;SDS011;67019;51.034;3.728;2023-04-25T08:27:50;8.58;;;1.98;;
77828;SDS011;67019;51.034;3.728;2023-04-25T08:30:17;7.10;;;1.75;;
77828;SDS011;67019;51.034;3.728;2023-04-25T08:32:45;15.68;;;1.70;;
77828;SDS011;67019;51.034;3.728;2023-04-25T08:35:12;16.55;;;5.53;;
77828;SDS011;67019;51.034;3.728;2023-04-25T08:37:40;7.67;;;1.45;;
77828;SDS011;67019;51.034;3.728;2023-04-25T08:40:07;4.97;;;1.55;;
77828;SDS011;67019;51.034;3.728;2023-04-25T08:42:38;4.78;;;1.15;;
77828;SDS011;67019;51.034;3.728;2023-04-25T08:45:09;7.80;;;1.50;;
77828;SDS011;67019;51.034;3.728;2023-04-25T08:47:37;4.35;;;1.30;;
77828;SDS011;67019;51.034;3.728;2023-04-25T08:50:05;6.20;;;1.00;;
77828;SDS011;67019;51.034;3.728;2023-04-25T08:52:37;3.92;;;1.17;;
77828;SDS011;67019;51.034;3.728;2023-04-25T08:55:07;2.67;;;1.60;;
77828;SDS011;67019;51.034;3.728;2023-04-25T08:57:38;32.88;;;6.00;;
77828;SDS011;67019;51.034;3.728;2023-04-25T09:02:36;4.78;;;2.30;;
77828;SDS011;67019;51.034;3.728;2023-04-25T09:05:05;3.87;;;1.10;;
77828;SDS011;67019;51.034;3.728;2023-04-25T09:07:37;6.15;;;1.70;;
77828;SDS011;67019;51.034;3.728;2023-04-25T09:10:04;9.73;;;2.50;;
77828;SDS011;67019;51.034;3.728;2023-04-25T09:12:33;9.38;;;1.75;;
77828;SDS011;67019;51.034;3.728;2023-04-25T09:15:11;4.93;;;1.00;;
77828;SDS011;67019;51.034;3.728;2023-04-25T09:17:36;9.35;;;2.02;;
77828;SDS011;67019;51.034;3.728;2023-04-25T09:20:11;6.50;;;1.90;;
77828;SDS011;67019;51.034;3.728;2023-04-25T09:22:40;8.03;;;2.25;;
77828;SDS011;67019;51.034;3.728;2023-04-25T09:25:09;6.53;;;1.35;;
77828;SDS011;67019;51.034;3.728;2023-04-25T09:27:49;8.75;;;1.82;;
77828;SDS011;67019;51.034;3.728;2023-04-25T09:30:17;9.55;;;2.05;;
77828;SDS011;67019;51.034;3.728;2023-04-25T09:32:47;9.30;;;2.50;;
77828;SDS011;67019;51.034;3.728;2023-04-25T09:35:25;10.23;;;1.35;;
77828;SDS011;67019;51.034;3.728;2023-04-25T09:37:53;4.50;;;1.70;;
77828;SDS011;67019;51.034;3.728;2023-04-25T09:40:22;4.80;;;1.35;;
77828;SDS011;67019;51.034;3.728;2023-04-25T09:42:49;5.83;;;1.65;;
77828;SDS011;67019;51.034;3.728;2023-04-25T09:45:17;5.30;;;1.35;;
77828;SDS011;67019;51.034;3.728;2023-04-25T09:47:45;3.52;;;1.27;;
77828;SDS011;67019;51.034;3.728;2023-04-25T09:50:16;2.42;;;1.10;;
77828;SDS011;67019;51.034;3.728;2023-04-25T09:52:47;8.13;;;1.67;;
77828;SDS011;67019;51.034;3.728;2023-04-25T09:57:42;3.52;;;1.32;;
77828;SDS011;67019;51.034;3.728;2023-04-25T10:00:13;3.87;;;1.17;;
77828;SDS011;67019;51.034;3.728;2023-04-25T10:02:42;6.47;;;1.30;;
77828;SDS011;67019;51.034;3.728;2023-04-25T10:07:38;7.03;;;1.75;;
77828;SDS011;67019;51.034;3.728;2023-04-25T10:10:07;7.30;;;1.30;;
77828;SDS011;67019;51.034;3.728;2023-04-25T10:12:35;4.85;;;1.15;;
77828;SDS011;67019;51.034;3.728;2023-04-25T10:15:05;4.95;;;1.42;;
77828;SDS011;67019;51.034;3.728;2023-04-25T10:17:34;4.30;;;1.10;;
77828;SDS011;67019;51.034;3.728;2023-04-25T10:20:02;5.30;;;1.00;;
77828;SDS011;67019;51.034;3.728;2023-04-25T10:22:36;5.67;;;1.35;;
77828;SDS011;67019;51.034;3.728;2023-04-25T10:25:06;6.87;;;1.45;;
77828;SDS011;67019;51.034;3.728;2023-04-25T10:27:34;9.93;;;3.27;;
77828;SDS011;67019;51.034;3.728;2023-04-25T10:32:48;11.83;;;1.75;;
77828;SDS011;67019;51.034;3.728;2023-04-25T10:35:23;2.77;;;1.05;;
77828;SDS011;67019;51.034;3.728;2023-04-25T10:38:05;9.68;;;1.67;;
77828;SDS011;67019;51.034;3.728;2023-04-25T10:40:36;5.97;;;1.55;;
77828;SDS011;67019;51.034;3.728;2023-04-25T10:46:24;5.87;;;1.70;;
77828;SDS011;67019;51.034;3.728;2023-04-25T10:48:54;6.75;;;1.55;;
77828;SDS011;67019;51.034;3.728;2023-04-25T10:54:10;6.50;;;1.85;;
77828;SDS011;67019;51.034;3.728;2023-04-25T10:56:39;4.65;;;1.70;;
77828;SDS011;67019;51.034;3.728;2023-04-25T10:59:11;6.62;;;1.67;;
77828;SDS011;67019;51.034;3.728;2023-04-25T11:01:45;4.50;;;1.52;;
77828;SDS011;67019;51.034;3.728;2023-04-25T11:04:20;8.90;;;1.52;;
77828;SDS011;67019;51.034;3.728;2023-04-25T11:09:33;5.35;;;2.30;;
77828;SDS011;67019;51.034;3.728;2023-04-25T11:12:01;6.87;;;2.22;;
77828;SDS011;67019;51.034;3.728;2023-04-25T11:14:30;5.20;;;1.77;;
77828;SDS011;67019;51.034;3.728;2023-04-25T11:17:01;3.77;;;1.37;;
77828;SDS011;67019;51.034;3.728;2023-04-25T11:19:33;11.60;;;1.50;;
77828;SDS011;67019;51.034;3.728;2023-04-25T11:22:04;10.00;;;1.87;;
77828;SDS011;67019;51.034;3.728;2023-04-25T11:24:34;4.70;;;1.07;;
77828;SDS011;67019;51.034;3.728;2023-04-25T11:27:04;9.78;;;1.30;;
77828;SDS011;67019;51.034;3.728;2023-04-25T11:29:34;4.95;;;1.42;;
77828;SDS011;67019;51.034;3.728;2023-04-25T11:32:03;5.15;;;1.45;;
77828;SDS011;67019;51.034;3.728;2023-04-25T11:34:34;10.23;;;1.67;;
77828;SDS011;67019;51.034;3.728;2023-04-25T11:37:03;6.12;;;1.67;;
77828;SDS011;67019;51.034;3.728;2023-04-25T11:39:32;3.95;;;0.80;;
77828;SDS011;67019;51.034;3.728;2023-04-25T11:42:03;6.87;;;0.88;;
77828;SDS011;67019;51.034;3.728;2023-04-25T11:44:32;6.65;;;1.57;;
77828;SDS011;67019;51.034;3.728;2023-04-25T11:46:59;7.75;;;1.22;;
77828;SDS011;67019;51.034;3.728;2023-04-25T11:49:30;4.97;;;1.10;;
77828;SDS011;67019;51.034;3.728;2023-04-25T11:51:59;10.23;;;1.50;;
77828;SDS011;67019;51.034;3.728;2023-04-25T11:54:26;5.12;;;1.32;;
77828;SDS011;67019;51.034;3.728;2023-04-25T11:56:54;4.87;;;1.60;;
77828;SDS011;67019;51.034;3.728;2023-04-25T11:59:25;6.97;;;1.35;;
77828;SDS011;67019;51.034;3.728;2023-04-25T12:01:55;5.75;;;1.80;;
77828;SDS011;67019;51.034;3.728;2023-04-25T12:04:23;3.85;;;1.37;;
77828;SDS011;67019;51.034;3.728;2023-04-25T12:06:54;7.05;;;1.12;;
77828;SDS011;67019;51.034;3.728;2023-04-25T12:09:30;5.03;;;1.22;;
77828;SDS011;67019;51.034;3.728;2023-04-25T12:11:58;9.20;;;0.82;;
77828;SDS011;67019;51.034;3.728;2023-04-25T12:14:29;4.35;;;1.35;;
77828;SDS011;67019;51.034;3.728;2023-04-25T12:17:00;3.07;;;1.53;;
77828;SDS011;67019;51.034;3.728;2023-04-25T12:19:38;6.95;;;1.60;;
77828;SDS011;67019;51.034;3.728;2023-04-25T12:22:02;8.75;;;1.65;;
77828;SDS011;67019;51.034;3.728;2023-04-25T12:24:33;7.75;;;1.70;;
77828;SDS011;67019;51.034;3.728;2023-04-25T12:29:50;8.50;;;1.50;;
77828;SDS011;67019;51.034;3.728;2023-04-25T12:32:19;6.42;;;1.32;;
77828;SDS011;67019;51.034;3.728;2023-04-25T12:34:46;6.45;;;1.62;;
77828;SDS011;67019;51.034;3.728;2023-04-25T12:37:14;2.80;;;1.20;;
77828;SDS011;67019;51.034;3.728;2023-04-25T12:39:42;8.50;;;2.47;;
77828;SDS011;67019;51.034;3.728;2023-04-25T12:42:09;9.98;;;1.17;;
77828;SDS011;67019;51.034;3.728;2023-04-25T12:44:40;3.98;;;1.37;;
77828;SDS011;67019;51.034;3.728;2023-04-25T12:47:09;5.25;;;1.15;;
77828;SDS011;67019;51.034;3.728;2023-04-25T12:49:36;10.40;;;1.90;;
77828;SDS011;67019;51.034;3.728;2023-04-25T12:52:06;4.22;;;1.15;;
77828;SDS011;67019;51.034;3.728;2023-04-25T12:57:02;5.90;;;1.67;;
77828;SDS011;67019;51.034;3.728;2023-04-25T12:59:29;3.25;;;1.40;;
77828;SDS011;67019;51.034;3.728;2023-04-25T13:01:57;12.23;;;2.37;;
77828;SDS011;67019;51.034;3.728;2023-04-25T13:04:25;4.67;;;1.45;;
77828;SDS011;67019;51.034;3.728;2023-04-25T13:06:53;12.03;;;2.17;;
77828;SDS011;67019;51.034;3.728;2023-04-25T13:09:22;6.85;;;2.30;;
77828;SDS011;67019;51.034;3.728;2023-04-25T13:11:55;8.73;;;1.40;;
77828;SDS011;67019;51.034;3.728;2023-04-25T13:14:23;7.05;;;1.77;;
77828;SDS011;67019;51.034;3.728;2023-04-25T13:16:51;9.08;;;1.82;;
77828;SDS011;67019;51.034;3.728;2023-04-25T13:19:19;6.75;;;1.55;;
77828;SDS011;67019;51.034;3.728;2023-04-25T13:21:49;4.72;;;1.35;;
77828;SDS011;67019;51.034;3.728;2023-04-25T13:24:16;8.55;;;1.60;;
77828;SDS011;67019;51.034;3.728;2023-04-25T13:26:44;14.07;;;1.52;;
77828;SDS011;67019;51.034;3.728;2023-04-25T13:29:11;5.42;;;1.67;;
77828;SDS011;67019;51.034;3.728;2023-04-25T13:31:39;8.63;;;2.55;;
77828;SDS011;67019;51.034;3.728;2023-04-25T13:34:07;6.75;;;2.15;;
77828;SDS011;67019;51.034;3.728;2023-04-25T13:36:34;9.33;;;1.82;;
77828;SDS011;67019;51.034;3.728;2023-04-25T13:39:02;4.35;;;1.55;;
77828;SDS011;67019;51.034;3.728;2023-04-25T13:41:30;7.25;;;1.90;;
77828;SDS011;67019;51.034;3.728;2023-04-25T13:43:58;13.70;;;2.00;;
77828;SDS011;67019;51.034;3.728;2023-04-25T13:46:26;9.45;;;1.70;;
77828;SDS011;67019;51.034;3.728;2023-04-25T13:48:54;13.32;;;1.92;;
77828;SDS011;67019;51.034;3.728;2023-04-25T13:51:22;5.20;;;1.37;;
77828;SDS011;67019;51.034;3.728;2023-04-25T13:53:49;5.83;;;1.85;;
77828;SDS011;67019;51.034;3.728;2023-04-25T13:56:17;11.60;;;1.60;;
77828;SDS011;67019;51.034;3.728;2023-04-25T13:58:45;3.85;;;1.30;;
77828;SDS011;67019;51.034;3.728;2023-04-25T14:01:13;7.17;;;2.35;;
77828;SDS011;67019;51.034;3.728;2023-04-25T14:03:41;8.40;;;1.62;;
77828;SDS011;67019;51.034;3.728;2023-04-25T14:06:11;4.42;;;1.50;;
77828;SDS011;67019;51.034;3.728;2023-04-25T14:08:39;4.72;;;1.32;;
77828;SDS011;67019;51.034;3.728;2023-04-25T14:11:07;6.22;;;1.55;;
77828;SDS011;67019;51.034;3.728;2023-04-25T14:13:34;4.83;;;1.77;;
77828;SDS011;67019;51.034;3.728;2023-04-25T14:16:06;4.12;;;2.10;;
77828;SDS011;67019;51.034;3.728;2023-04-25T14:18:34;5.58;;;1.37;;
77828;SDS011;67019;51.034;3.728;2023-04-25T14:21:02;7.22;;;1.17;;
77828;SDS011;67019;51.034;3.728;2023-04-25T14:23:30;4.55;;;1.32;;
77828;SDS011;67019;51.034;3.728;2023-04-25T14:25:58;4.67;;;0.98;;
77828;SDS011;67019;51.034;3.728;2023-04-25T14:28:25;5.62;;;1.27;;
77828;SDS011;67019;51.034;3.728;2023-04-25T14:30:54;5.25;;;2.30;;
77828;SDS011;67019;51.034;3.728;2023-04-25T14:33:22;4.97;;;1.20;;
77828;SDS011;67019;51.034;3.728;2023-04-25T14:35:49;8.38;;;1.45;;
77828;SDS011;67019;51.034;3.728;2023-04-25T14:38:18;5.92;;;1.20;;
77828;SDS011;67019;51.034;3.728;2023-04-25T14:40:47;3.17;;;0.80;;
77828;SDS011;67019;51.034;3.728;2023-04-25T14:43:17;5.95;;;1.25;;
77828;SDS011;67019;51.034;3.728;2023-04-25T14:45:45;6.65;;;1.10;;
77828;SDS011;67019;51.034;3.728;2023-04-25T14:48:12;8.60;;;1.90;;
77828;SDS011;67019;51.034;3.728;2023-04-25T14:53:10;7.37;;;3.17;;
77828;SDS011;67019;51.034;3.728;2023-04-25T14:55:38;5.90;;;1.00;;
77828;SDS011;67019;51.034;3.728;2023-04-25T14:58:06;4.08;;;1.17;;
77828;SDS011;67019;51.034;3.728;2023-04-25T15:00:33;8.78;;;1.22;;
77828;SDS011;67019;51.034;3.728;2023-04-25T15:03:01;5.85;;;1.30;;
77828;SDS011;67019;51.034;3.728;2023-04-25T15:05:29;9.60;;;1.60;;
77828;SDS011;67019;51.034;3.728;2023-04-25T15:07:58;5.78;;;1.40;;
77828;SDS011;67019;51.034;3.728;2023-04-25T15:10:27;4.85;;;1.30;;
77828;SDS011;67019;51.034;3.728;2023-04-25T15:12:57;3.92;;;1.37;;
77828;SDS011;67019;51.034;3.728;2023-04-25T15:15:24;5.37;;;1.57;;